Huvudsida
METAR-TAF:

METAR-TAF

Flygplatser :

Hemavan Tärnaby Airport

Hemavan, Sverige

latitud: 65-48-22N, longitud: 015-04-58E, höjd: 458 m

Aktuellt väderrapport

Denna rapport gjordes för 34 minuter sedan, klockan 06:50 UTC
Vind 5 kt från ost/sydost
Temperatur -13°C
Fuktighet 92%
Tryck 998 hPa
Sikt: 5000 m
lätt snö

METAR: ESUT 250650Z AUTO 12005KT 5000 -SN OVC007/// M13/M14 Q0998

Tid: 08:24 (07:24 UTC)


TAF: saknas

Aktuella väderrapporter och prognoser från 4000 flygplatser (METAR- och TAF-rapporter).

De tillgängliga stationerna syns som gula och röda prickar på kartan.

För musen över prickarna för att se namnen på stationerna.

Klicka sedan för att få väderrapporter och prognoser.

För att ändra kartan: Klicka på de gröna knapparna med ett svart kors på för att zooma in; den gröna knappen med ett streck på för att zooma ut; eller på de gröna pilarna för angränsande kartor.


METAR-TAF: